Time;durP1;ratioP1;P1;durP2;ratioP2;P2;SDS_P1;SDS_P2;PMS_P1;PMS_P2;Temp;Humidity;BMP_temperature;BMP_pressure;BME280_temperature;BME280_humidity;BME280_pressure;Samples;Min_cycle;Max_cycle;Signal;HPM_P1;HPM_P2
2023/12/10 00:02:19;;;;;;;;;;;8.40;99.90;;;;;;5120745;27;19966;-70
2023/12/10 00:04:45;;;;;;;;;;;8.40;99.90;;;;;;5111711;27;19940;-70
2023/12/10 00:07:10;;;;;;;;;;;8.50;99.90;;;;;;5116862;27;19966;-70
2023/12/10 00:09:36;;;;;;;;;;;8.50;99.90;;;;;;5116291;27;19938;-70
2023/12/10 00:12:01;;;;;;;;;;;8.50;99.90;;;;;;5118891;27;21321;-70
2023/12/10 00:14:27;;;;;;;;;;;8.50;99.90;;;;;;5119328;27;19930;-70
2023/12/10 00:16:53;;;;;;;;;;;8.50;99.90;;;;;;5113856;27;19919;-70
2023/12/10 00:19:19;;;;;;;;;;;8.60;99.90;;;;;;5116625;27;20520;-70
2023/12/10 00:21:44;;;;;;;;;;;8.50;99.90;;;;;;5116202;27;19930;-71
2023/12/10 00:24:10;;;;;;;;;;;8.60;99.90;;;;;;5118656;27;20313;-71
2023/12/10 00:26:35;;;;;;;;;;;8.60;99.90;;;;;;5115449;27;19963;-71
2023/12/10 00:29:01;;;;;;;;;;;8.60;99.90;;;;;;5099268;27;19981;-71
2023/12/10 00:31:26;;;;;;;;;;;8.50;99.90;;;;;;5120350;27;19935;-71
2023/12/10 00:33:52;;;;;;;;;;;8.50;99.90;;;;;;5118512;27;20022;-70
2023/12/10 00:36:18;;;;;;;;;;;8.40;99.90;;;;;;5098103;27;19934;-70
2023/12/10 00:38:45;;;;;;;;;;;8.40;99.90;;;;;;5115151;27;20014;-70
2023/12/10 00:41:11;;;;;;;;;;;8.30;99.90;;;;;;5119472;27;19924;-70
2023/12/10 00:43:36;;;;;;;;;;;8.20;99.90;;;;;;5095300;27;19984;-70
2023/12/10 00:46:02;;;;;;;;;;;8.20;99.90;;;;;;5116028;27;19980;-70
2023/12/10 00:48:28;;;;;;;;;;;8.20;99.90;;;;;;5119501;27;19931;-70
2023/12/10 00:50:54;;;;;;;;;;;8.10;99.90;;;;;;5118587;27;19962;-70
2023/12/10 00:53:19;;;;;;;;;;;8.10;99.90;;;;;;5118082;27;20301;-71
2023/12/10 00:55:46;;;;;;;;;;;8.10;99.90;;;;;;5115038;27;19923;-71
2023/12/10 00:58:13;;;;;;;;;;;8.00;99.90;;;;;;5120422;27;19932;-71
2023/12/10 01:00:40;;;;;;;;;;;8.00;99.90;;;;;;5114435;27;20046;-70
2023/12/10 01:03:06;;;;;;;;;;;8.00;99.90;;;;;;5116851;27;19924;-70
2023/12/10 01:05:32;;;;;;;;;;;8.00;99.90;;;;;;5116837;27;19931;-71
2023/12/10 01:07:57;;;;;;;;;;;8.00;99.90;;;;;;5120315;27;19928;-70
2023/12/10 01:10:23;;;;;;;;;;;8.00;99.90;;;;;;5113942;27;20340;-70
2023/12/10 01:12:48;;;;;;;;;;;8.00;99.90;;;;;;5103222;27;20196;-70
2023/12/10 01:15:14;;;;;;;;;;;8.00;99.90;;;;;;5115218;27;20385;-70
2023/12/10 01:17:39;;;;;;;;;;;8.00;99.90;;;;;;5120385;27;19928;-70
2023/12/10 01:20:05;;;;;;;;;;;8.00;99.90;;;;;;5114694;27;20389;-70
2023/12/10 01:22:31;;;;;;;;;;;8.00;99.90;;;;;;5116422;27;19927;-70
2023/12/10 01:24:57;;;;;;;;;;;7.90;99.90;;;;;;5113337;27;19932;-70
2023/12/10 01:27:23;;;;;;;;;;;7.90;99.90;;;;;;5114202;27;19924;-70
2023/12/10 01:29:48;;;;;;;;;;;8.00;99.90;;;;;;5118500;27;19961;-70
2023/12/10 01:32:14;;;;;;;;;;;7.90;99.90;;;;;;5097616;27;19924;-70
2023/12/10 01:34:43;;;;;;;;;;;7.90;99.90;;;;;;5114472;27;19974;-70
2023/12/10 01:37:08;;;;;;;;;;;7.90;99.90;;;;;;5116769;27;20454;-70
2023/12/10 01:39:34;;;;;;;;;;;7.90;99.90;;;;;;5113772;27;19932;-70
2023/12/10 01:42:00;;;;;;;;;;;7.80;99.90;;;;;;5113462;27;20029;-70
2023/12/10 01:44:26;;;;;;;;;;;7.80;99.90;;;;;;5116086;27;19985;-70
2023/12/10 01:46:52;;;;;;;;;;;7.80;99.90;;;;;;5113875;27;20029;-70
2023/12/10 01:49:18;;;;;;;;;;;7.80;99.90;;;;;;5112598;27;19931;-70
2023/12/10 01:51:45;;;;;;;;;;;7.90;99.90;;;;;;5115955;27;20680;-70
2023/12/10 01:54:21;;;;;;;;;;;7.80;99.90;;;;;;5111685;27;19930;-70
2023/12/10 01:56:50;;;;;;;;;;;7.80;99.90;;;;;;5116565;27;19963;-70
2023/12/10 01:59:16;;;;;;;;;;;7.80;99.90;;;;;;5120101;27;20471;-70
2023/12/10 02:01:42;;;;;;;;;;;7.80;99.90;;;;;;5111566;27;19924;-70
2023/12/10 02:04:08;;;;;;;;;;;7.90;99.90;;;;;;5113963;27;19938;-70
2023/12/10 02:06:34;;;;;;;;;;;7.90;99.90;;;;;;5112317;27;19963;-70
2023/12/10 02:09:00;;;;;;;;;;;7.90;99.90;;;;;;5114088;27;20386;-70
2023/12/10 02:11:25;;;;;;;;;;;8.00;99.90;;;;;;5116880;27;19927;-70
2023/12/10 02:13:51;;;;;;;;;;;8.00;99.90;;;;;;5116334;27;20410;-70
2023/12/10 02:16:17;;;;;;;;;;;8.00;99.90;;;;;;5117527;27;19924;-70
2023/12/10 02:18:42;;;;;;;;;;;7.90;99.90;;;;;;5114443;27;19924;-70
2023/12/10 02:21:08;;;;;;;;;;;8.00;99.90;;;;;;5116818;27;19975;-70
2023/12/10 02:23:34;;;;;;;;;;;7.90;99.90;;;;;;5111480;27;19932;-69
2023/12/10 02:26:00;;;;;;;;;;;7.90;99.90;;;;;;5114367;27;19945;-70
2023/12/10 02:28:25;;;;;;;;;;;8.00;99.90;;;;;;5116126;27;19931;-71
2023/12/10 02:30:51;;;;;;;;;;;7.90;99.90;;;;;;5116792;27;19931;-69
2023/12/10 02:33:16;;;;;;;;;;;7.90;99.90;;;;;;5117451;27;19932;-69
2023/12/10 02:35:42;;;;;;;;;;;7.90;99.90;;;;;;5118291;27;19976;-69
2023/12/10 02:38:08;;;;;;;;;;;7.90;99.90;;;;;;5113166;27;19997;-70
2023/12/10 02:40:33;;;;;;;;;;;7.90;99.90;;;;;;5116925;27;19923;-69
2023/12/10 02:42:59;;;;;;;;;;;7.80;99.90;;;;;;5116193;27;19982;-69
2023/12/10 02:45:25;;;;;;;;;;;7.80;99.90;;;;;;5114977;27;20022;-70
2023/12/10 02:47:51;;;;;;;;;;;7.80;99.90;;;;;;5117954;27;20385;-69
2023/12/10 02:50:16;;;;;;;;;;;7.90;99.90;;;;;;5116249;27;19927;-69
2023/12/10 02:52:42;;;;;;;;;;;7.80;99.90;;;;;;5112623;27;19932;-69
2023/12/10 02:55:10;;;;;;;;;;;7.80;99.90;;;;;;5110556;27;19970;-69
2023/12/10 02:57:36;;;;;;;;;;;7.80;99.90;;;;;;5113669;27;19949;-69
2023/12/10 03:00:02;;;;;;;;;;;7.80;99.90;;;;;;5114806;27;19960;-69
2023/12/10 03:02:28;;;;;;;;;;;7.80;99.90;;;;;;5120027;27;19977;-70
2023/12/10 03:04:53;;;;;;;;;;;7.70;99.90;;;;;;5113097;27;19924;-69
2023/12/10 03:07:19;;;;;;;;;;;7.80;99.90;;;;;;5116721;27;20017;-70
2023/12/10 03:09:45;;;;;;;;;;;7.80;99.90;;;;;;5112811;28;20446;-70
2023/12/10 03:12:10;;;;;;;;;;;7.80;99.90;;;;;;5118353;28;19931;-69
2023/12/10 03:14:36;;;;;;;;;;;7.90;99.90;;;;;;5117334;28;19927;-70
2023/12/10 03:17:02;;;;;;;;;;;7.80;99.90;;;;;;5113733;28;19927;-70
2023/12/10 03:19:27;;;;;;;;;;;7.90;99.90;;;;;;5114681;28;19976;-69
2023/12/10 03:21:53;;;;;;;;;;;7.90;99.90;;;;;;5118308;28;19938;-69
2023/12/10 03:24:18;;;;;;;;;;;7.90;99.90;;;;;;5110431;28;19932;-70
2023/12/10 03:26:44;;;;;;;;;;;8.00;99.90;;;;;;5108205;27;20454;-70
2023/12/10 03:29:09;;;;;;;;;;;8.00;99.90;;;;;;5095356;28;19932;-69
2023/12/10 03:31:35;;;;;;;;;;;8.00;99.90;;;;;;5117840;28;19935;-69
2023/12/10 03:34:01;;;;;;;;;;;8.10;99.90;;;;;;5100371;28;20015;-69
2023/12/10 03:36:26;;;;;;;;;;;8.10;99.90;;;;;;5112257;28;20069;-69
2023/12/10 03:38:52;;;;;;;;;;;8.10;99.90;;;;;;5113302;27;19925;-70
2023/12/10 03:41:17;;;;;;;;;;;8.10;99.90;;;;;;5116161;28;20023;-69
2023/12/10 03:43:43;;;;;;;;;;;8.10;99.90;;;;;;5117077;27;19934;-69
2023/12/10 03:46:08;;;;;;;;;;;8.20;99.90;;;;;;5112539;28;19931;-69
2023/12/10 03:48:34;;;;;;;;;;;8.20;99.90;;;;;;5112911;28;20334;-69
2023/12/10 03:50:59;;;;;;;;;;;8.20;99.90;;;;;;5115267;27;19924;-69
2023/12/10 03:53:25;;;;;;;;;;;8.20;99.90;;;;;;5109850;28;20423;-69
2023/12/10 03:55:50;;;;;;;;;;;8.20;99.90;;;;;;5111829;28;19923;-69
2023/12/10 03:58:16;;;;;;;;;;;8.20;99.90;;;;;;5117836;28;19927;-69
2023/12/10 04:00:42;;;;;;;;;;;8.20;99.90;;;;;;5112400;27;19931;-69
2023/12/10 04:03:07;;;;;;;;;;;8.20;99.90;;;;;;5112683;27;19958;-69
2023/12/10 04:05:33;;;;;;;;;;;8.20;99.90;;;;;;5111126;27;20015;-69
2023/12/10 04:07:58;;;;;;;;;;;8.30;99.90;;;;;;5108418;28;19931;-69
2023/12/10 04:10:24;;;;;;;;;;;8.30;99.90;;;;;;5111857;27;19933;-70
2023/12/10 04:12:50;;;;;;;;;;;8.30;99.90;;;;;;5112938;27;19923;-69
2023/12/10 04:15:16;;;;;;;;;;;8.30;99.90;;;;;;5120540;27;19923;-69
2023/12/10 04:17:43;;;;;;;;;;;8.30;99.90;;;;;;5114926;27;19958;-69
2023/12/10 04:20:08;;;;;;;;;;;8.30;99.90;;;;;;5122491;27;19976;-69
2023/12/10 04:22:34;;;;;;;;;;;8.30;99.90;;;;;;5118990;27;20322;-69
2023/12/10 04:25:00;;;;;;;;;;;8.40;99.90;;;;;;5116208;27;19932;-69
2023/12/10 04:27:25;;;;;;;;;;;8.40;99.90;;;;;;5116293;27;19931;-69
2023/12/10 04:29:51;;;;;;;;;;;8.40;99.90;;;;;;5117927;27;20290;-69
2023/12/10 04:32:17;;;;;;;;;;;8.40;99.90;;;;;;5115897;27;19942;-69
2023/12/10 04:34:42;;;;;;;;;;;8.50;99.90;;;;;;5101391;27;19959;-69
2023/12/10 04:37:08;;;;;;;;;;;8.50;99.90;;;;;;5110129;27;19931;-69
2023/12/10 04:39:33;;;;;;;;;;;8.50;99.90;;;;;;5099164;27;21386;-69
2023/12/10 04:41:59;;;;;;;;;;;8.40;99.90;;;;;;5117752;27;19923;-69
2023/12/10 04:44:24;;;;;;;;;;;8.50;99.90;;;;;;5117622;27;20429;-69
2023/12/10 04:49:28;;;;;;;;;;;8.40;99.90;;;;;;5080240;28;19932;-69
2023/12/10 04:51:53;;;;;;;;;;;8.50;99.90;;;;;;5071670;28;19939;-69
2023/12/10 04:54:19;;;;;;;;;;;8.50;99.90;;;;;;5067717;28;19963;-70
2023/12/10 04:56:44;;;;;;;;;;;8.50;99.90;;;;;;5088025;28;20546;-70
2023/12/10 04:59:10;;;;;;;;;;;8.40;99.90;;;;;;5087893;28;19978;-70
2023/12/10 05:01:35;;;;;;;;;;;8.40;99.90;;;;;;5076669;28;19932;-69
2023/12/10 05:04:01;;;;;;;;;;;8.40;99.90;;;;;;5107523;27;19932;-69
2023/12/10 05:06:27;;;;;;;;;;;8.40;99.90;;;;;;5071232;28;19931;-69
2023/12/10 05:08:52;;;;;;;;;;;8.50;99.90;;;;;;5070519;28;19928;-69
2023/12/10 05:11:18;;;;;;;;;;;8.50;99.90;;;;;;5069663;28;19986;-69
2023/12/10 05:13:44;;;;;;;;;;;8.40;99.90;;;;;;5069676;28;19924;-69
2023/12/10 05:16:09;;;;;;;;;;;8.40;99.90;;;;;;5053300;28;20059;-68
2023/12/10 05:18:35;;;;;;;;;;;8.40;99.90;;;;;;5103170;27;20015;-69
2023/12/10 05:21:01;;;;;;;;;;;8.40;99.90;;;;;;5076314;28;19940;-69
2023/12/10 05:23:26;;;;;;;;;;;8.30;99.90;;;;;;5072376;28;19932;-68
2023/12/10 05:25:52;;;;;;;;;;;8.30;99.90;;;;;;5054784;28;19928;-69
2023/12/10 05:28:17;;;;;;;;;;;8.40;99.90;;;;;;5087505;28;20383;-68
2023/12/10 05:30:43;;;;;;;;;;;8.30;99.90;;;;;;5072730;28;20031;-68
2023/12/10 05:33:08;;;;;;;;;;;8.30;99.90;;;;;;5101794;27;20460;-68
2023/12/10 05:35:34;;;;;;;;;;;8.30;99.90;;;;;;5087840;28;20023;-68
2023/12/10 05:38:00;;;;;;;;;;;8.30;99.90;;;;;;5068772;28;19977;-69
2023/12/10 05:40:26;;;;;;;;;;;8.30;99.90;;;;;;5068240;28;19928;-70
2023/12/10 05:42:52;;;;;;;;;;;8.30;99.90;;;;;;5102064;27;19977;-70
2023/12/10 05:45:18;;;;;;;;;;;8.30;99.90;;;;;;5068825;28;20404;-70
2023/12/10 05:47:43;;;;;;;;;;;8.30;99.90;;;;;;5059183;28;19924;-70
2023/12/10 05:50:09;;;;;;;;;;;8.30;99.90;;;;;;5088307;28;19937;-70
2023/12/10 05:52:34;;;;;;;;;;;8.30;99.90;;;;;;5054951;28;20692;-70
2023/12/10 05:55:00;;;;;;;;;;;8.30;99.90;;;;;;5054678;28;19932;-70
2023/12/10 05:57:27;;;;;;;;;;;8.30;99.90;;;;;;5057350;28;19943;-70
2023/12/10 05:59:52;;;;;;;;;;;8.30;99.90;;;;;;5060982;28;19925;-69
2023/12/10 06:02:18;;;;;;;;;;;8.30;99.90;;;;;;5051216;28;19988;-71
2023/12/10 06:04:43;;;;;;;;;;;8.40;99.90;;;;;;5070923;28;20022;-71
2023/12/10 06:07:09;;;;;;;;;;;8.40;99.90;;;;;;5055123;28;19924;-71
2023/12/10 06:09:35;;;;;;;;;;;8.30;99.90;;;;;;5057122;28;20093;-72
2023/12/10 06:12:00;;;;;;;;;;;8.40;99.90;;;;;;5070989;28;20339;-71
2023/12/10 06:14:26;;;;;;;;;;;8.30;99.90;;;;;;5072359;28;19940;-71
2023/12/10 06:16:51;;;;;;;;;;;8.30;99.90;;;;;;5069158;28;20322;-71
2023/12/10 06:19:17;;;;;;;;;;;8.30;99.90;;;;;;5054258;28;19978;-71
2023/12/10 06:21:42;;;;;;;;;;;8.30;99.90;;;;;;5052276;28;20035;-71
2023/12/10 06:24:08;;;;;;;;;;;8.40;99.90;;;;;;5051030;28;19928;-71
2023/12/10 06:26:34;;;;;;;;;;;8.40;99.90;;;;;;5072906;28;19932;-71
2023/12/10 06:28:59;;;;;;;;;;;8.40;99.90;;;;;;5068772;28;19932;-71
2023/12/10 06:31:25;;;;;;;;;;;8.40;99.90;;;;;;5068817;28;19972;-71
2023/12/10 06:33:50;;;;;;;;;;;8.30;99.90;;;;;;5058933;28;19924;-71
2023/12/10 06:36:16;;;;;;;;;;;8.30;99.90;;;;;;5071051;28;20423;-71
2023/12/10 06:38:41;;;;;;;;;;;8.30;99.90;;;;;;5071706;28;19931;-70
2023/12/10 06:41:07;;;;;;;;;;;8.30;99.90;;;;;;5050788;28;19925;-70
2023/12/10 06:43:33;;;;;;;;;;;8.30;99.90;;;;;;5057271;28;20118;-71
2023/12/10 06:45:58;;;;;;;;;;;8.30;99.90;;;;;;5068785;28;20387;-70
2023/12/10 06:48:25;;;;;;;;;;;8.30;99.90;;;;;;5068558;28;19967;-71
2023/12/10 06:50:51;;;;;;;;;;;8.30;99.90;;;;;;5052251;28;19925;-70
2023/12/10 06:53:16;;;;;;;;;;;8.30;99.90;;;;;;5053399;28;19920;-70
2023/12/10 06:55:42;;;;;;;;;;;8.30;99.90;;;;;;5053873;28;20413;-70
2023/12/10 06:58:07;;;;;;;;;;;8.30;99.90;;;;;;5053353;28;19932;-72
2023/12/10 07:00:33;;;;;;;;;;;8.30;99.90;;;;;;5081847;28;19924;-72
2023/12/10 07:02:58;;;;;;;;;;;8.30;99.90;;;;;;5051144;28;19932;-73
2023/12/10 07:05:24;;;;;;;;;;;8.30;99.90;;;;;;5082917;28;19924;-72
2023/12/10 07:07:50;;;;;;;;;;;8.40;99.90;;;;;;5052271;28;20179;-73
2023/12/10 07:10:15;;;;;;;;;;;8.40;99.90;;;;;;5054357;28;19928;-72
2023/12/10 07:12:41;;;;;;;;;;;8.30;99.90;;;;;;5036582;28;20031;-72
2023/12/10 07:15:06;;;;;;;;;;;8.40;99.90;;;;;;5050890;28;20062;-72
2023/12/10 07:17:32;;;;;;;;;;;8.40;99.90;;;;;;5087127;28;20101;-72
2023/12/10 07:19:58;;;;;;;;;;;8.30;99.90;;;;;;5066728;28;19956;-72
2023/12/10 07:22:23;;;;;;;;;;;8.40;99.90;;;;;;5049197;28;19933;-72
2023/12/10 07:24:49;;;;;;;;;;;8.40;99.90;;;;;;5082806;28;20402;-72
2023/12/10 07:27:14;;;;;;;;;;;8.30;99.90;;;;;;5050689;28;19924;-72
2023/12/10 07:29:40;;;;;;;;;;;8.40;99.90;;;;;;5051908;28;19924;-72
2023/12/10 07:32:05;;;;;;;;;;;8.30;99.90;;;;;;5050161;28;19940;-72
2023/12/10 07:34:31;;;;;;;;;;;8.30;99.90;;;;;;5053406;28;19929;-72
2023/12/10 07:36:56;;;;;;;;;;;8.30;99.90;;;;;;5066139;28;20174;-72
2023/12/10 07:39:22;;;;;;;;;;;8.30;99.90;;;;;;5050704;28;19928;-73
2023/12/10 07:41:48;;;;;;;;;;;8.30;99.90;;;;;;5067589;28;20291;-72
2023/12/10 07:44:13;;;;;;;;;;;8.30;99.90;;;;;;5068658;28;19932;-72
2023/12/10 07:46:39;;;;;;;;;;;8.30;99.90;;;;;;5065500;28;19924;-71
2023/12/10 07:49:05;;;;;;;;;;;8.30;99.90;;;;;;5067640;28;19939;-71
2023/12/10 07:51:30;;;;;;;;;;;8.30;99.90;;;;;;5056566;28;19928;-72
2023/12/10 07:53:56;;;;;;;;;;;8.30;99.90;;;;;;5072662;28;19924;-72
2023/12/10 07:56:22;;;;;;;;;;;8.30;99.90;;;;;;5077081;28;20166;-71
2023/12/10 07:58:47;;;;;;;;;;;8.30;99.90;;;;;;5070448;28;20268;-72
2023/12/10 08:01:13;;;;;;;;;;;8.30;99.90;;;;;;5068637;28;20387;-72
2023/12/10 08:03:38;;;;;;;;;;;8.30;99.90;;;;;;5061277;28;20291;-72
2023/12/10 08:06:04;;;;;;;;;;;8.30;99.90;;;;;;5052170;28;19925;-71
2023/12/10 08:08:29;;;;;;;;;;;8.30;99.90;;;;;;5054645;28;19932;-71
2023/12/10 08:10:55;;;;;;;;;;;8.30;99.90;;;;;;5073648;28;20500;-72
2023/12/10 08:13:20;;;;;;;;;;;8.30;99.90;;;;;;5072956;28;19929;-72
2023/12/10 08:15:46;;;;;;;;;;;8.30;99.90;;;;;;5047853;28;19920;-72
2023/12/10 08:18:12;;;;;;;;;;;8.40;99.90;;;;;;5051212;28;19935;-72
2023/12/10 08:20:38;;;;;;;;;;;8.40;99.90;;;;;;5087894;28;19933;-72
2023/12/10 08:23:03;;;;;;;;;;;8.40;99.90;;;;;;5067328;28;19927;-72
2023/12/10 08:25:29;;;;;;;;;;;8.40;99.90;;;;;;5054881;28;19931;-72
2023/12/10 08:27:54;;;;;;;;;;;8.50;99.90;;;;;;5055124;28;19925;-72
2023/12/10 08:30:20;;;;;;;;;;;8.40;99.90;;;;;;5085583;28;19932;-71
2023/12/10 08:32:46;;;;;;;;;;;8.50;99.90;;;;;;5054008;28;20477;-75
2023/12/10 08:35:11;;;;;;;;;;;8.50;99.90;;;;;;5057513;28;20287;-71
2023/12/10 08:37:38;;;;;;;;;;;8.60;99.90;;;;;;5052649;28;20038;-72
2023/12/10 08:40:05;;;;;;;;;;;8.60;99.90;;;;;;5036071;28;19931;-71
2023/12/10 08:42:30;;;;;;;;;;;8.60;99.90;;;;;;5069827;28;19936;-71
2023/12/10 08:44:57;;;;;;;;;;;8.60;99.90;;;;;;5069989;28;20220;-72
2023/12/10 08:47:22;;;;;;;;;;;8.60;99.90;;;;;;5084834;28;19933;-71
2023/12/10 08:49:48;;;;;;;;;;;8.60;99.90;;;;;;5042687;28;19932;-71
2023/12/10 08:52:13;;;;;;;;;;;8.60;99.90;;;;;;5053793;28;20336;-73
2023/12/10 08:54:39;;;;;;;;;;;8.60;99.90;;;;;;5055828;28;19959;-72
2023/12/10 08:57:04;;;;;;;;;;;8.60;99.90;;;;;;5066359;28;19925;-71
2023/12/10 08:59:30;;;;;;;;;;;8.60;99.90;;;;;;5052295;28;19928;-71
2023/12/10 09:01:56;;;;;;;;;;;8.60;99.90;;;;;;5067920;28;19928;-71
2023/12/10 09:04:21;;;;;;;;;;;8.60;99.90;;;;;;5047758;28;19991;-72
2023/12/10 09:06:47;;;;;;;;;;;8.70;99.90;;;;;;5056485;28;19932;-70
2023/12/10 09:09:12;;;;;;;;;;;8.60;99.90;;;;;;5055397;28;19935;-70
2023/12/10 09:11:38;;;;;;;;;;;8.60;99.90;;;;;;5087405;28;19933;-70
2023/12/10 09:14:03;;;;;;;;;;;8.60;99.90;;;;;;5055401;28;20379;-71
2023/12/10 09:16:29;;;;;;;;;;;8.60;99.90;;;;;;5082342;28;20238;-70
2023/12/10 09:18:55;;;;;;;;;;;8.60;99.90;;;;;;5053489;28;20454;-71
2023/12/10 09:21:21;;;;;;;;;;;8.60;99.90;;;;;;5046711;28;20391;-71
2023/12/10 09:23:46;;;;;;;;;;;8.60;99.90;;;;;;5052437;28;19924;-71
2023/12/10 09:26:12;;;;;;;;;;;8.70;99.90;;;;;;5066277;28;19938;-71
2023/12/10 09:28:37;;;;;;;;;;;8.80;99.90;;;;;;5069405;28;20406;-71
2023/12/10 09:31:03;;;;;;;;;;;8.70;99.90;;;;;;5052360;28;19932;-71
2023/12/10 09:33:29;;;;;;;;;;;8.80;99.90;;;;;;5068406;28;20029;-71
2023/12/10 09:35:54;;;;;;;;;;;8.80;99.90;;;;;;5051815;28;19933;-71
2023/12/10 09:38:20;;;;;;;;;;;8.80;99.90;;;;;;5076355;28;19928;-72
2023/12/10 09:40:45;;;;;;;;;;;8.80;99.90;;;;;;5048963;28;19975;-70
2023/12/10 09:43:11;;;;;;;;;;;8.70;99.90;;;;;;5070854;28;20273;-70
2023/12/10 09:45:37;;;;;;;;;;;8.70;99.90;;;;;;5068581;28;19982;-70
2023/12/10 09:48:02;;;;;;;;;;;8.60;99.90;;;;;;5071580;28;20520;-70
2023/12/10 09:50:30;;;;;;;;;;;8.60;99.90;;;;;;5071091;28;19924;-70
2023/12/10 09:52:56;;;;;;;;;;;8.60;99.90;;;;;;5073371;28;20134;-70
2023/12/10 09:55:22;;;;;;;;;;;8.50;99.90;;;;;;5086083;28;20095;-70
2023/12/10 09:57:48;;;;;;;;;;;8.50;99.90;;;;;;5067285;28;19924;-70
2023/12/10 10:00:14;;;;;;;;;;;8.50;99.90;;;;;;5054390;28;20467;-70
2023/12/10 10:02:40;;;;;;;;;;;8.50;99.90;;;;;;5086024;28;19963;-70
2023/12/10 10:05:07;;;;;;;;;;;8.60;99.90;;;;;;5046885;28;20019;-70
2023/12/10 10:07:33;;;;;;;;;;;8.60;99.90;;;;;;5054761;28;19987;-71
2023/12/10 10:09:59;;;;;;;;;;;8.60;99.90;;;;;;5068111;28;20330;-71
2023/12/10 10:12:28;;;;;;;;;;;8.70;99.90;;;;;;5070694;28;19928;-70
2023/12/10 10:14:55;;;;;;;;;;;8.70;99.90;;;;;;5053237;28;19929;-70
2023/12/10 10:17:30;;;;;;;;;;;8.70;99.90;;;;;;5064687;28;19920;-69
2023/12/10 10:19:56;;;;;;;;;;;8.70;99.90;;;;;;5054141;28;20023;-69
2023/12/10 10:22:23;;;;;;;;;;;8.80;99.90;;;;;;5032296;28;20054;-70
2023/12/10 10:24:49;;;;;;;;;;;8.80;99.90;;;;;;5065333;28;19986;-70
2023/12/10 10:27:14;;;;;;;;;;;8.90;99.90;;;;;;5086663;28;19925;-70
2023/12/10 10:29:40;;;;;;;;;;;8.90;99.90;;;;;;5054609;28;19941;-71
2023/12/10 10:32:08;;;;;;;;;;;8.90;99.90;;;;;;5057773;28;19974;-70
2023/12/10 10:34:34;;;;;;;;;;;9.00;99.90;;;;;;5054009;28;20402;-70
2023/12/10 10:36:59;;;;;;;;;;;9.00;99.90;;;;;;5057006;28;19924;-71
2023/12/10 10:39:26;;;;;;;;;;;8.90;99.90;;;;;;5067355;28;19932;-72
2023/12/10 10:41:52;;;;;;;;;;;9.00;99.90;;;;;;5025755;28;19932;-73
2023/12/10 10:44:17;;;;;;;;;;;9.00;99.90;;;;;;5061929;28;19930;-72
2023/12/10 10:46:43;;;;;;;;;;;9.00;99.90;;;;;;5059837;28;20387;-71
2023/12/10 10:49:08;;;;;;;;;;;9.00;99.90;;;;;;5056166;28;20422;-73
2023/12/10 10:51:34;;;;;;;;;;;9.00;99.90;;;;;;5062110;28;20519;-72
2023/12/10 10:54:03;;;;;;;;;;;9.00;99.90;;;;;;5053760;28;19924;-72
2023/12/10 10:56:29;;;;;;;;;;;9.00;99.90;;;;;;5056473;28;19989;-72
2023/12/10 10:58:55;;;;;;;;;;;8.90;99.90;;;;;;5063363;28;20505;-72
2023/12/10 11:01:37;;;;;;;;;;;8.90;99.90;;;;;;5055312;28;20460;-71
2023/12/10 11:04:03;;;;;;;;;;;8.90;99.90;;;;;;5069652;28;19987;-71
2023/12/10 11:06:29;;;;;;;;;;;8.80;99.90;;;;;;5043863;28;20407;-72
2023/12/10 11:08:58;;;;;;;;;;;8.90;99.90;;;;;;5071745;28;20327;-73
2023/12/10 11:11:27;;;;;;;;;;;8.90;99.90;;;;;;5072202;28;19928;-72
2023/12/10 11:13:53;;;;;;;;;;;8.90;99.90;;;;;;5041441;28;20020;-71
2023/12/10 11:16:18;;;;;;;;;;;9.00;99.90;;;;;;5067263;28;19950;-72
2023/12/10 11:18:56;;;;;;;;;;;9.00;99.90;;;;;;5041169;28;19978;-71
2023/12/10 11:21:21;;;;;;;;;;;9.10;99.90;;;;;;5059565;28;19936;-71
2023/12/10 11:23:47;;;;;;;;;;;9.10;99.90;;;;;;5056257;28;19982;-71
2023/12/10 11:26:13;;;;;;;;;;;9.10;99.90;;;;;;5069156;28;20318;-71
2023/12/10 11:28:41;;;;;;;;;;;9.10;99.90;;;;;;5056976;28;19984;-71
2023/12/10 11:31:06;;;;;;;;;;;9.10;99.90;;;;;;5084307;28;19934;-71
2023/12/10 11:33:32;;;;;;;;;;;9.10;99.90;;;;;;5074703;28;20499;-72
2023/12/10 11:35:57;;;;;;;;;;;9.10;99.90;;;;;;5066888;28;19939;-71
2023/12/10 11:38:23;;;;;;;;;;;9.00;99.90;;;;;;5021295;28;19932;-72
2023/12/10 11:40:49;;;;;;;;;;;9.00;99.90;;;;;;5062146;28;19924;-72
2023/12/10 11:43:15;;;;;;;;;;;9.00;99.90;;;;;;5049482;28;19924;-72
2023/12/10 11:45:40;;;;;;;;;;;8.90;99.90;;;;;;5055057;28;19928;-72
2023/12/10 11:48:06;;;;;;;;;;;8.90;99.90;;;;;;5040716;28;19981;-72
2023/12/10 11:50:32;;;;;;;;;;;9.00;99.90;;;;;;5055078;28;19932;-71
2023/12/10 11:52:58;;;;;;;;;;;8.90;99.90;;;;;;5070963;28;20287;-71
2023/12/10 11:55:24;;;;;;;;;;;9.00;99.90;;;;;;5051352;28;19934;-71
2023/12/10 11:57:49;;;;;;;;;;;9.00;99.90;;;;;;5069758;28;19924;-72
2023/12/10 12:00:15;;;;;;;;;;;9.10;99.90;;;;;;5051633;28;20007;-71
2023/12/10 12:02:42;;;;;;;;;;;9.10;99.90;;;;;;5056416;28;19935;-72
2023/12/10 12:05:09;;;;;;;;;;;9.20;99.90;;;;;;5036774;28;19924;-71
2023/12/10 12:07:35;;;;;;;;;;;9.20;99.90;;;;;;5060911;28;19967;-72
2023/12/10 12:10:01;;;;;;;;;;;9.20;99.90;;;;;;5058190;28;19932;-72
2023/12/10 12:12:27;;;;;;;;;;;9.10;99.90;;;;;;5036794;28;20006;-71
2023/12/10 12:14:53;;;;;;;;;;;9.10;99.90;;;;;;5073601;28;19928;-72
2023/12/10 12:17:19;;;;;;;;;;;9.10;99.90;;;;;;5049126;28;20025;-73
2023/12/10 12:19:45;;;;;;;;;;;9.10;99.90;;;;;;5037486;28;21152;-72
2023/12/10 12:22:12;;;;;;;;;;;9.10;99.90;;;;;;5049197;28;19929;-73
2023/12/10 12:24:43;;;;;;;;;;;9.10;99.90;;;;;;5086588;28;20428;-73
2023/12/10 12:27:09;;;;;;;;;;;9.10;99.90;;;;;;5072045;28;19924;-71
2023/12/10 12:29:35;;;;;;;;;;;9.10;99.90;;;;;;5073386;28;20553;-72
2023/12/10 12:32:01;;;;;;;;;;;9.00;99.90;;;;;;5070663;28;19935;-71
2023/12/10 12:34:27;;;;;;;;;;;9.00;99.90;;;;;;5066478;28;20336;-72
2023/12/10 12:36:52;;;;;;;;;;;9.00;99.90;;;;;;5073928;28;20015;-74
2023/12/10 12:39:18;;;;;;;;;;;9.00;99.90;;;;;;5068418;28;19928;-71
2023/12/10 12:41:43;;;;;;;;;;;9.00;99.90;;;;;;5086027;28;19928;-74
2023/12/10 12:44:10;;;;;;;;;;;9.00;99.90;;;;;;5068050;28;19925;-73
2023/12/10 12:46:35;;;;;;;;;;;9.00;99.90;;;;;;5075517;28;19955;-71
2023/12/10 12:49:01;;;;;;;;;;;9.00;99.90;;;;;;5070096;28;19939;-71
2023/12/10 12:51:30;;;;;;;;;;;9.00;99.90;;;;;;5071181;28;19924;-71
2023/12/10 12:53:55;;;;;;;;;;;9.00;99.90;;;;;;5072796;28;19928;-72
2023/12/10 12:56:21;;;;;;;;;;;9.10;99.90;;;;;;5069432;28;19924;-72
2023/12/10 12:58:47;;;;;;;;;;;9.00;99.90;;;;;;5064405;28;20374;-72
2023/12/10 13:01:12;;;;;;;;;;;9.10;99.90;;;;;;5077247;28;19928;-72
2023/12/10 13:03:38;;;;;;;;;;;9.10;99.90;;;;;;5070006;28;20405;-73
2023/12/10 13:06:03;;;;;;;;;;;9.10;99.90;;;;;;5068498;28;19932;-73
2023/12/10 13:08:30;;;;;;;;;;;9.10;99.90;;;;;;5071689;28;20011;-72
2023/12/10 13:10:56;;;;;;;;;;;9.10;99.90;;;;;;5071126;28;19972;-72
2023/12/10 13:13:22;;;;;;;;;;;9.00;99.90;;;;;;5065505;28;20455;-72
2023/12/10 13:15:47;;;;;;;;;;;9.00;99.90;;;;;;5055963;28;19939;-75
2023/12/10 13:18:14;;;;;;;;;;;9.00;99.90;;;;;;5096143;28;19928;-73
2023/12/10 13:20:40;;;;;;;;;;;8.90;99.90;;;;;;5044948;28;19982;-73
2023/12/10 13:23:05;;;;;;;;;;;8.90;99.90;;;;;;5042299;28;19929;-71
2023/12/10 13:25:31;;;;;;;;;;;8.90;99.90;;;;;;5060457;28;19987;-72
2023/12/10 13:27:56;;;;;;;;;;;8.90;99.90;;;;;;5053146;28;20287;-69
2023/12/10 13:30:22;;;;;;;;;;;8.90;99.90;;;;;;5066052;28;19932;-72
2023/12/10 13:32:47;;;;;;;;;;;8.90;99.90;;;;;;5035263;28;19971;-71
2023/12/10 13:35:13;;;;;;;;;;;8.90;99.90;;;;;;5070087;28;20147;-71
2023/12/10 13:37:39;;;;;;;;;;;8.90;99.90;;;;;;5047957;28;19932;-72
2023/12/10 13:40:05;;;;;;;;;;;8.90;99.90;;;;;;5071882;28;19994;-72
2023/12/10 13:42:32;;;;;;;;;;;8.80;99.90;;;;;;5070875;28;19932;-72
2023/12/10 13:44:57;;;;;;;;;;;8.80;99.90;;;;;;5066997;28;19932;-74
2023/12/10 13:47:23;;;;;;;;;;;8.80;99.90;;;;;;5086492;28;20329;-72
2023/12/10 13:49:48;;;;;;;;;;;8.80;99.90;;;;;;5049990;28;19940;-72
2023/12/10 13:52:14;;;;;;;;;;;8.80;99.90;;;;;;5072132;28;19973;-72
2023/12/10 13:54:40;;;;;;;;;;;8.70;99.90;;;;;;5070022;28;19924;-73
2023/12/10 13:57:05;;;;;;;;;;;8.70;99.90;;;;;;5068589;28;19932;-72
2023/12/10 13:59:31;;;;;;;;;;;8.70;99.90;;;;;;5067398;28;19924;-72
2023/12/10 14:01:56;;;;;;;;;;;8.70;99.90;;;;;;5054602;28;19924;-73
2023/12/10 14:04:22;;;;;;;;;;;8.70;99.90;;;;;;5052099;28;20445;-74
2023/12/10 14:06:47;;;;;;;;;;;8.70;99.90;;;;;;5081904;28;20440;-73
2023/12/10 14:09:14;;;;;;;;;;;8.60;99.90;;;;;;5065975;28;19929;-72
2023/12/10 14:11:39;;;;;;;;;;;8.60;99.90;;;;;;5050301;28;19973;-73
2023/12/10 14:14:05;;;;;;;;;;;8.60;99.90;;;;;;5078404;28;20292;-73
2023/12/10 14:16:30;;;;;;;;;;;8.60;99.90;;;;;;5068873;28;19932;-72
2023/12/10 14:18:56;;;;;;;;;;;8.60;99.90;;;;;;5073073;28;19920;-72
2023/12/10 14:21:25;;;;;;;;;;;8.60;99.90;;;;;;5082143;28;19924;-73
2023/12/10 14:23:50;;;;;;;;;;;8.70;99.90;;;;;;5069080;28;19925;-71
2023/12/10 14:26:16;;;;;;;;;;;8.60;99.90;;;;;;5068176;28;19939;-72